sensor_id;sensor_type;location;lat;lon;timestamp;pressure;altitude;pressure_sealevel;temperature;humidity
76122;BME280;64853;53.200;6.080;2023-05-27T00:04:19;103140.69;;;21.48;39.01
76122;BME280;64853;53.200;6.080;2023-05-27T00:09:11;103135.91;;;21.43;39.00
76122;BME280;64853;53.200;6.080;2023-05-27T00:14:03;103138.63;;;21.38;37.83
76122;BME280;64853;53.200;6.080;2023-05-27T00:18:56;103143.84;;;21.34;37.39
76122;BME280;64853;53.200;6.080;2023-05-27T00:23:51;103132.25;;;21.20;37.64
76122;BME280;64853;53.200;6.080;2023-05-27T00:28:43;103141.16;;;21.22;37.59
76122;BME280;64853;53.200;6.080;2023-05-27T00:33:36;103144.94;;;21.16;37.43
76122;BME280;64853;53.200;6.080;2023-05-27T00:38:29;103131.50;;;21.08;37.45
76122;BME280;64853;53.200;6.080;2023-05-27T00:43:22;103136.38;;;21.01;36.96
76122;BME280;64853;53.200;6.080;2023-05-27T00:48:14;103112.84;;;20.86;37.06
76122;BME280;64853;53.200;6.080;2023-05-27T00:53:07;103103.78;;;20.74;37.65
76122;BME280;64853;53.200;6.080;2023-05-27T00:58:00;103132.84;;;20.88;37.05
76122;BME280;64853;53.200;6.080;2023-05-27T01:02:53;103139.88;;;20.79;37.11
76122;BME280;64853;53.200;6.080;2023-05-27T01:08:07;103152.03;;;20.78;37.73
76122;BME280;64853;53.200;6.080;2023-05-27T01:13:10;103142.56;;;20.74;37.88
76122;BME280;64853;53.200;6.080;2023-05-27T01:18:06;103149.69;;;20.70;37.93
76122;BME280;64853;53.200;6.080;2023-05-27T01:23:02;103123.47;;;20.61;38.21
76122;BME280;64853;53.200;6.080;2023-05-27T01:27:55;103131.22;;;20.59;38.04
76122;BME280;64853;53.200;6.080;2023-05-27T01:32:50;103125.66;;;20.59;37.63
76122;BME280;64853;53.200;6.080;2023-05-27T01:37:46;103118.28;;;20.47;37.76
76122;BME280;64853;53.200;6.080;2023-05-27T01:42:41;103117.19;;;20.48;37.37
76122;BME280;64853;53.200;6.080;2023-05-27T01:47:35;103108.53;;;20.45;37.49
76122;BME280;64853;53.200;6.080;2023-05-27T01:52:27;103068.84;;;20.10;37.89
76122;BME280;64853;53.200;6.080;2023-05-27T01:57:19;103112.56;;;20.37;37.72
76122;BME280;64853;53.200;6.080;2023-05-27T02:02:13;103105.59;;;20.23;37.79
76122;BME280;64853;53.200;6.080;2023-05-27T02:07:05;103111.81;;;20.30;37.84
76122;BME280;64853;53.200;6.080;2023-05-27T02:11:57;103101.25;;;20.27;37.78
76122;BME280;64853;53.200;6.080;2023-05-27T02:16:49;103107.28;;;20.24;38.31
76122;BME280;64853;53.200;6.080;2023-05-27T02:21:43;103102.25;;;20.20;38.54
76122;BME280;64853;53.200;6.080;2023-05-27T02:26:35;103109.38;;;20.16;38.11
76122;BME280;64853;53.200;6.080;2023-05-27T02:31:27;103086.94;;;20.01;38.36
76122;BME280;64853;53.200;6.080;2023-05-27T02:36:20;103099.88;;;20.12;38.50
76122;BME280;64853;53.200;6.080;2023-05-27T02:41:16;103098.09;;;20.06;38.91
76122;BME280;64853;53.200;6.080;2023-05-27T02:46:09;103082.38;;;19.95;38.24
76122;BME280;64853;53.200;6.080;2023-05-27T02:51:01;103101.34;;;20.03;37.94
76122;BME280;64853;53.200;6.080;2023-05-27T02:55:53;103082.88;;;19.92;38.15
76122;BME280;64853;53.200;6.080;2023-05-27T03:00:47;103098.72;;;19.96;38.46
76122;BME280;64853;53.200;6.080;2023-05-27T03:05:40;103086.38;;;19.87;38.25
76122;BME280;64853;53.200;6.080;2023-05-27T03:10:33;103094.19;;;19.90;38.44
76122;BME280;64853;53.200;6.080;2023-05-27T03:15:26;103095.50;;;19.88;38.25
76122;BME280;64853;53.200;6.080;2023-05-27T03:20:22;103100.44;;;19.86;38.08
76122;BME280;64853;53.200;6.080;2023-05-27T03:25:14;103100.94;;;19.82;38.41
76122;BME280;64853;53.200;6.080;2023-05-27T03:30:08;103100.84;;;19.77;38.30
76122;BME280;64853;53.200;6.080;2023-05-27T03:35:01;103098.06;;;19.77;38.42
76122;BME280;64853;53.200;6.080;2023-05-27T03:39:55;103095.56;;;19.76;38.81
76122;BME280;64853;53.200;6.080;2023-05-27T03:44:48;103078.25;;;19.69;38.08
76122;BME280;64853;53.200;6.080;2023-05-27T03:49:41;103066.59;;;19.67;38.59
76122;BME280;64853;53.200;6.080;2023-05-27T03:54:33;103084.00;;;19.67;38.54
76122;BME280;64853;53.200;6.080;2023-05-27T03:59:27;103088.97;;;19.65;38.12
76122;BME280;64853;53.200;6.080;2023-05-27T04:04:20;103085.34;;;19.53;38.39
76122;BME280;64853;53.200;6.080;2023-05-27T04:09:14;103092.69;;;19.59;38.37
76122;BME280;64853;53.200;6.080;2023-05-27T04:14:07;103058.31;;;19.43;38.36
76122;BME280;64853;53.200;6.080;2023-05-27T04:19:02;103044.03;;;19.34;38.46
76122;BME280;64853;53.200;6.080;2023-05-27T04:23:55;103088.09;;;19.53;38.61
76122;BME280;64853;53.200;6.080;2023-05-27T04:28:48;103087.50;;;19.51;38.67
76122;BME280;64853;53.200;6.080;2023-05-27T04:33:41;103066.63;;;19.31;38.77
76122;BME280;64853;53.200;6.080;2023-05-27T04:38:34;103079.13;;;19.45;38.83
76122;BME280;64853;53.200;6.080;2023-05-27T04:43:27;103077.44;;;19.44;39.27
76122;BME280;64853;53.200;6.080;2023-05-27T04:48:20;103074.06;;;19.42;38.85
76122;BME280;64853;53.200;6.080;2023-05-27T04:53:13;103063.97;;;19.36;39.21
76122;BME280;64853;53.200;6.080;2023-05-27T04:58:08;103069.84;;;19.40;39.12
76122;BME280;64853;53.200;6.080;2023-05-27T05:03:00;103059.28;;;19.37;39.41
76122;BME280;64853;53.200;6.080;2023-05-27T05:07:52;103065.06;;;19.47;39.36
76122;BME280;64853;53.200;6.080;2023-05-27T05:12:44;103076.56;;;19.56;39.10
76122;BME280;64853;53.200;6.080;2023-05-27T05:17:38;103082.00;;;19.62;39.23
76122;BME280;64853;53.200;6.080;2023-05-27T05:22:30;103076.19;;;19.64;39.22
76122;BME280;64853;53.200;6.080;2023-05-27T05:27:23;103074.25;;;19.76;39.33
76122;BME280;64853;53.200;6.080;2023-05-27T05:32:16;103069.91;;;19.80;39.24
76122;BME280;64853;53.200;6.080;2023-05-27T05:37:09;103069.69;;;19.82;39.41
76122;BME280;64853;53.200;6.080;2023-05-27T05:42:03;103070.34;;;19.89;39.44
76122;BME280;64853;53.200;6.080;2023-05-27T05:46:55;103070.00;;;19.97;39.25
76122;BME280;64853;53.200;6.080;2023-05-27T05:51:47;103046.31;;;19.90;39.63
76122;BME280;64853;53.200;6.080;2023-05-27T05:56:41;103047.00;;;19.97;39.65
76122;BME280;64853;53.200;6.080;2023-05-27T06:01:33;103015.09;;;19.77;39.13
76122;BME280;64853;53.200;6.080;2023-05-27T06:06:25;103061.28;;;20.23;39.34
76122;BME280;64853;53.200;6.080;2023-05-27T06:11:17;103054.78;;;20.29;39.12
76122;BME280;64853;53.200;6.080;2023-05-27T06:16:11;103059.59;;;20.33;39.35
76122;BME280;64853;53.200;6.080;2023-05-27T06:21:03;103051.38;;;20.38;39.46
76122;BME280;64853;53.200;6.080;2023-05-27T06:25:56;103055.00;;;20.39;39.20
76122;BME280;64853;53.200;6.080;2023-05-27T06:30:48;103050.53;;;20.38;39.38
76122;BME280;64853;53.200;6.080;2023-05-27T06:35:43;103029.13;;;20.33;39.55
76122;BME280;64853;53.200;6.080;2023-05-27T06:40:35;103033.69;;;20.40;39.60
76122;BME280;64853;53.200;6.080;2023-05-27T06:45:27;103039.66;;;20.48;39.98
76122;BME280;64853;53.200;6.080;2023-05-27T06:50:21;103015.38;;;20.38;39.49
76122;BME280;64853;53.200;6.080;2023-05-27T06:55:14;103025.31;;;20.51;39.41
76122;BME280;64853;53.200;6.080;2023-05-27T07:00:07;103022.44;;;20.63;39.71
76122;BME280;64853;53.200;6.080;2023-05-27T07:04:59;103026.47;;;20.72;39.77
76122;BME280;64853;53.200;6.080;2023-05-27T07:09:52;103029.47;;;20.71;39.72
76122;BME280;64853;53.200;6.080;2023-05-27T07:14:46;103028.91;;;20.69;39.43
76122;BME280;64853;53.200;6.080;2023-05-27T07:19:38;103023.44;;;20.74;39.35
76122;BME280;64853;53.200;6.080;2023-05-27T07:24:32;103018.47;;;20.76;39.12
76122;BME280;64853;53.200;6.080;2023-05-27T07:29:23;103008.56;;;20.80;39.61
76122;BME280;64853;53.200;6.080;2023-05-27T07:34:16;103016.88;;;20.80;39.58
76122;BME280;64853;53.200;6.080;2023-05-27T07:39:08;103007.97;;;20.78;39.19
76122;BME280;64853;53.200;6.080;2023-05-27T07:44:01;102998.91;;;20.83;39.15
76122;BME280;64853;53.200;6.080;2023-05-27T07:48:53;102990.19;;;20.74;39.27
76122;BME280;64853;53.200;6.080;2023-05-27T07:53:48;102990.84;;;20.81;39.16
76122;BME280;64853;53.200;6.080;2023-05-27T07:58:40;102991.44;;;20.83;38.90
76122;BME280;64853;53.200;6.080;2023-05-27T08:03:32;102992.03;;;20.85;39.07
76122;BME280;64853;53.200;6.080;2023-05-27T08:08:24;102980.94;;;20.85;39.21
76122;BME280;64853;53.200;6.080;2023-05-27T08:13:18;102967.91;;;20.86;38.86
76122;BME280;64853;53.200;6.080;2023-05-27T08:18:10;102968.16;;;20.84;39.23
76122;BME280;64853;53.200;6.080;2023-05-27T08:23:01;102949.38;;;20.86;39.35
76122;BME280;64853;53.200;6.080;2023-05-27T08:27:54;102951.88;;;20.88;39.39
76122;BME280;64853;53.200;6.080;2023-05-27T08:32:54;102937.06;;;20.77;39.30
76122;BME280;64853;53.200;6.080;2023-05-27T08:37:46;102924.34;;;20.81;39.42
76122;BME280;64853;53.200;6.080;2023-05-27T08:42:39;102924.03;;;20.78;39.28
76122;BME280;64853;53.200;6.080;2023-05-27T08:47:32;102937.78;;;20.89;39.51
76122;BME280;64853;53.200;6.080;2023-05-27T08:52:27;102909.22;;;20.89;39.64
76122;BME280;64853;53.200;6.080;2023-05-27T08:57:20;102919.78;;;20.92;39.75
76122;BME280;64853;53.200;6.080;2023-05-27T09:02:14;102913.16;;;20.93;39.39
76122;BME280;64853;53.200;6.080;2023-05-27T09:07:09;102902.28;;;20.86;39.10
76122;BME280;64853;53.200;6.080;2023-05-27T09:12:04;102900.13;;;20.94;39.76
76122;BME280;64853;53.200;6.080;2023-05-27T09:16:56;102880.94;;;20.87;39.50
76122;BME280;64853;53.200;6.080;2023-05-27T09:21:51;102893.00;;;20.98;39.51
76122;BME280;64853;53.200;6.080;2023-05-27T09:26:43;102902.13;;;20.98;39.65
76122;BME280;64853;53.200;6.080;2023-05-27T09:31:40;102892.69;;;20.94;39.63
76122;BME280;64853;53.200;6.080;2023-05-27T09:36:33;102895.25;;;21.01;39.89
76122;BME280;64853;53.200;6.080;2023-05-27T09:41:25;102880.72;;;20.94;40.18
76122;BME280;64853;53.200;6.080;2023-05-27T09:46:18;102884.81;;;21.08;40.30
76122;BME280;64853;53.200;6.080;2023-05-27T09:51:12;102885.97;;;21.12;40.30
76122;BME280;64853;53.200;6.080;2023-05-27T09:56:05;102878.25;;;21.14;40.00
76122;BME280;64853;53.200;6.080;2023-05-27T10:00:58;102864.38;;;21.14;40.00
76122;BME280;64853;53.200;6.080;2023-05-27T10:05:51;102861.47;;;21.26;40.24
76122;BME280;64853;53.200;6.080;2023-05-27T10:10:47;102860.34;;;21.27;39.89
76122;BME280;64853;53.200;6.080;2023-05-27T10:15:46;102851.78;;;21.28;39.77
76122;BME280;64853;53.200;6.080;2023-05-27T10:20:41;102824.75;;;21.14;39.73
76122;BME280;64853;53.200;6.080;2023-05-27T10:25:37;102844.06;;;21.31;39.84
76122;BME280;64853;53.200;6.080;2023-05-27T10:30:42;102832.88;;;21.25;39.72
76122;BME280;64853;53.200;6.080;2023-05-27T10:35:39;102827.81;;;21.17;40.18
76122;BME280;64853;53.200;6.080;2023-05-27T10:40:32;102809.72;;;21.09;40.23
76122;BME280;64853;53.200;6.080;2023-05-27T10:45:33;102784.66;;;20.99;40.21
76122;BME280;64853;53.200;6.080;2023-05-27T10:50:30;102791.59;;;21.02;40.26
76122;BME280;64853;53.200;6.080;2023-05-27T10:55:24;102781.03;;;20.99;40.62
76122;BME280;64853;53.200;6.080;2023-05-27T11:00:18;102790.56;;;21.08;40.38
76122;BME280;64853;53.200;6.080;2023-05-27T11:05:14;102793.94;;;21.10;40.67
76122;BME280;64853;53.200;6.080;2023-05-27T11:10:07;102786.47;;;21.11;40.72
76122;BME280;64853;53.200;6.080;2023-05-27T11:14:59;102782.25;;;21.08;40.62
76122;BME280;64853;53.200;6.080;2023-05-27T11:19:51;102768.66;;;21.06;40.74
76122;BME280;64853;53.200;6.080;2023-05-27T11:24:55;102760.56;;;21.05;41.19
76122;BME280;64853;53.200;6.080;2023-05-27T11:29:49;102755.03;;;21.05;41.27
76122;BME280;64853;53.200;6.080;2023-05-27T11:34:43;102737.53;;;20.99;41.08
76122;BME280;64853;53.200;6.080;2023-05-27T11:39:36;102734.50;;;21.01;41.26
76122;BME280;64853;53.200;6.080;2023-05-27T11:44:30;102740.88;;;21.01;41.13
76122;BME280;64853;53.200;6.080;2023-05-27T11:49:22;102727.00;;;21.01;41.61
76122;BME280;64853;53.200;6.080;2023-05-27T11:54:23;102705.34;;;20.93;41.55
76122;BME280;64853;53.200;6.080;2023-05-27T11:59:15;102714.00;;;21.02;41.27
76122;BME280;64853;53.200;6.080;2023-05-27T12:04:09;102702.31;;;20.95;41.35
76122;BME280;64853;53.200;6.080;2023-05-27T12:09:02;102694.56;;;20.97;41.55
76122;BME280;64853;53.200;6.080;2023-05-27T12:13:55;102691.00;;;21.01;41.41
76122;BME280;64853;53.200;6.080;2023-05-27T12:18:47;102689.91;;;21.02;41.51
76122;BME280;64853;53.200;6.080;2023-05-27T12:23:40;102676.88;;;21.03;41.86
76122;BME280;64853;53.200;6.080;2023-05-27T12:28:32;102674.94;;;21.03;41.92
76122;BME280;64853;53.200;6.080;2023-05-27T12:33:24;102669.13;;;21.05;41.79
76122;BME280;64853;53.200;6.080;2023-05-27T12:38:16;102669.75;;;21.07;41.93
76122;BME280;64853;53.200;6.080;2023-05-27T12:43:09;102657.53;;;21.08;41.69
76122;BME280;64853;53.200;6.080;2023-05-27T12:48:01;102653.69;;;21.09;41.97
76122;BME280;64853;53.200;6.080;2023-05-27T12:52:53;102645.09;;;21.11;41.71
76122;BME280;64853;53.200;6.080;2023-05-27T12:57:47;102647.59;;;21.12;41.78
76122;BME280;64853;53.200;6.080;2023-05-27T13:02:41;102644.59;;;21.19;42.14
76122;BME280;64853;53.200;6.080;2023-05-27T13:07:34;102634.06;;;21.21;41.92
76122;BME280;64853;53.200;6.080;2023-05-27T13:12:27;102633.53;;;21.24;41.55
76122;BME280;64853;53.200;6.080;2023-05-27T13:17:19;102617.25;;;21.27;42.09
76122;BME280;64853;53.200;6.080;2023-05-27T13:22:12;102627.22;;;21.34;41.74
76122;BME280;64853;53.200;6.080;2023-05-27T13:27:05;102624.78;;;21.37;41.71
76122;BME280;64853;53.200;6.080;2023-05-27T13:31:57;102628.41;;;21.43;41.89
76122;BME280;64853;53.200;6.080;2023-05-27T13:36:48;102622.91;;;21.48;41.68
76122;BME280;64853;53.200;6.080;2023-05-27T13:41:41;102601.25;;;21.45;41.84
76122;BME280;64853;53.200;6.080;2023-05-27T13:46:33;102609.34;;;21.57;41.84
76122;BME280;64853;53.200;6.080;2023-05-27T13:51:25;102610.78;;;21.64;41.65
76122;BME280;64853;53.200;6.080;2023-05-27T13:56:17;102595.84;;;21.71;41.99
76122;BME280;64853;53.200;6.080;2023-05-27T14:01:10;102589.22;;;21.77;41.61
76122;BME280;64853;53.200;6.080;2023-05-27T14:06:02;102589.53;;;21.86;41.63
76122;BME280;64853;53.200;6.080;2023-05-27T14:10:54;102586.78;;;21.91;41.78
76122;BME280;64853;53.200;6.080;2023-05-27T14:15:46;102575.44;;;21.97;41.97
76122;BME280;64853;53.200;6.080;2023-05-27T14:20:40;102573.50;;;22.03;41.33
76122;BME280;64853;53.200;6.080;2023-05-27T14:25:31;102566.03;;;22.09;41.21
76122;BME280;64853;53.200;6.080;2023-05-27T14:30:23;102564.38;;;22.18;41.64
76122;BME280;64853;53.200;6.080;2023-05-27T14:35:16;102558.84;;;22.23;41.41
76122;BME280;64853;53.200;6.080;2023-05-27T14:40:10;102557.75;;;22.29;41.24
76122;BME280;64853;53.200;6.080;2023-05-27T14:45:03;102549.13;;;22.36;41.25
76122;BME280;64853;53.200;6.080;2023-05-27T14:49:55;102526.66;;;22.32;41.38
76122;BME280;64853;53.200;6.080;2023-05-27T14:54:46;102535.00;;;22.48;41.08
76122;BME280;64853;53.200;6.080;2023-05-27T14:59:39;102533.88;;;22.54;40.99
76122;BME280;64853;53.200;6.080;2023-05-27T15:04:31;102538.34;;;22.60;41.03
76122;BME280;64853;53.200;6.080;2023-05-27T15:09:23;102519.16;;;22.59;40.90
76122;BME280;64853;53.200;6.080;2023-05-27T15:14:15;102537.22;;;22.71;40.86
76122;BME280;64853;53.200;6.080;2023-05-27T15:19:08;102536.38;;;22.76;41.17
76122;BME280;64853;53.200;6.080;2023-05-27T15:24:00;102507.22;;;22.68;40.97
76122;BME280;64853;53.200;6.080;2023-05-27T15:28:52;102530.56;;;22.88;40.96
76122;BME280;64853;53.200;6.080;2023-05-27T15:33:44;102520.25;;;22.94;40.77
76122;BME280;64853;53.200;6.080;2023-05-27T15:38:37;102515.78;;;22.98;41.10
76122;BME280;64853;53.200;6.080;2023-05-27T15:43:29;102511.31;;;23.02;40.73
76122;BME280;64853;53.200;6.080;2023-05-27T15:48:21;102519.09;;;23.10;40.52
76122;BME280;64853;53.200;6.080;2023-05-27T15:53:13;102515.53;;;23.15;40.59
76122;BME280;64853;53.200;6.080;2023-05-27T15:58:06;102506.34;;;23.19;40.47
76122;BME280;64853;53.200;6.080;2023-05-27T16:02:58;102497.69;;;23.21;40.31
76122;BME280;64853;53.200;6.080;2023-05-27T16:07:49;102497.13;;;23.29;40.23
76122;BME280;64853;53.200;6.080;2023-05-27T16:12:41;102489.31;;;23.31;40.53
76122;BME280;64853;53.200;6.080;2023-05-27T16:17:35;102493.75;;;23.37;40.33
76122;BME280;64853;53.200;6.080;2023-05-27T16:22:27;102470.66;;;23.32;40.35
76122;BME280;64853;53.200;6.080;2023-05-27T16:27:19;102457.59;;;23.32;40.22
76122;BME280;64853;53.200;6.080;2023-05-27T16:32:10;102468.91;;;23.51;40.10
76122;BME280;64853;53.200;6.080;2023-05-27T16:37:04;102453.38;;;23.45;40.52
76122;BME280;64853;53.200;6.080;2023-05-27T16:41:56;102461.38;;;23.57;40.11
76122;BME280;64853;53.200;6.080;2023-05-27T16:46:50;102457.19;;;23.59;39.84
76122;BME280;64853;53.200;6.080;2023-05-27T16:51:42;102455.47;;;23.64;40.11
76122;BME280;64853;53.200;6.080;2023-05-27T16:56:35;102441.84;;;23.62;40.24
76122;BME280;64853;53.200;6.080;2023-05-27T17:01:27;102432.63;;;23.67;39.97
76122;BME280;64853;53.200;6.080;2023-05-27T17:06:18;102442.38;;;23.69;39.95
76122;BME280;64853;53.200;6.080;2023-05-27T17:11:10;102420.44;;;23.63;39.92
76122;BME280;64853;53.200;6.080;2023-05-27T17:16:04;102434.56;;;23.71;40.03
76122;BME280;64853;53.200;6.080;2023-05-27T17:20:56;102431.19;;;23.74;40.10
76122;BME280;64853;53.200;6.080;2023-05-27T17:25:48;102405.66;;;23.67;40.00
76122;BME280;64853;53.200;6.080;2023-05-27T17:30:39;102419.78;;;23.76;40.12
76122;BME280;64853;53.200;6.080;2023-05-27T17:35:34;102417.88;;;23.71;40.00
76122;BME280;64853;53.200;6.080;2023-05-27T17:40:26;102420.63;;;23.76;39.94
76122;BME280;64853;53.200;6.080;2023-05-27T17:45:18;102422.28;;;23.77;40.52
76122;BME280;64853;53.200;6.080;2023-05-27T17:50:10;102412.84;;;23.73;40.08
76122;BME280;64853;53.200;6.080;2023-05-27T17:55:04;102407.81;;;23.75;40.20
76122;BME280;64853;53.200;6.080;2023-05-27T17:59:56;102417.00;;;23.76;40.41
76122;BME280;64853;53.200;6.080;2023-05-27T18:04:49;102410.06;;;23.73;40.44
76122;BME280;64853;53.200;6.080;2023-05-27T18:09:41;102424.53;;;23.75;40.34
76122;BME280;64853;53.200;6.080;2023-05-27T18:14:35;102412.06;;;23.68;40.47
76122;BME280;64853;53.200;6.080;2023-05-27T18:19:29;102417.63;;;23.68;40.33
76122;BME280;64853;53.200;6.080;2023-05-27T18:24:21;102429.00;;;23.71;40.32
76122;BME280;64853;53.200;6.080;2023-05-27T18:29:13;102418.47;;;23.63;40.70
76122;BME280;64853;53.200;6.080;2023-05-27T18:34:06;102417.91;;;23.66;40.51
76122;BME280;64853;53.200;6.080;2023-05-27T18:38:58;102407.16;;;23.54;40.54
76122;BME280;64853;53.200;6.080;2023-05-27T18:43:50;102416.03;;;23.56;40.90
76122;BME280;64853;53.200;6.080;2023-05-27T18:48:42;102418.00;;;23.51;40.84
76122;BME280;64853;53.200;6.080;2023-05-27T18:53:35;102418.03;;;23.46;41.00
76122;BME280;64853;53.200;6.080;2023-05-27T18:58:32;102405.22;;;23.44;41.29
76122;BME280;64853;53.200;6.080;2023-05-27T19:03:26;102433.50;;;23.62;41.25
76122;BME280;64853;53.200;6.080;2023-05-27T19:08:18;102423.75;;;23.65;41.21
76122;BME280;64853;53.200;6.080;2023-05-27T19:13:13;102427.38;;;23.65;41.15
76122;BME280;64853;53.200;6.080;2023-05-27T19:18:05;102416.28;;;23.60;41.34
76122;BME280;64853;53.200;6.080;2023-05-27T19:22:57;102425.16;;;23.62;41.46
76122;BME280;64853;53.200;6.080;2023-05-27T19:27:50;102421.00;;;23.59;41.47
76122;BME280;64853;53.200;6.080;2023-05-27T19:32:44;102426.88;;;23.58;41.47
76122;BME280;64853;53.200;6.080;2023-05-27T19:37:38;102437.47;;;23.56;41.48
76122;BME280;64853;53.200;6.080;2023-05-27T19:42:30;102430.78;;;23.52;41.72
76122;BME280;64853;53.200;6.080;2023-05-27T19:47:22;102421.34;;;23.48;41.61
76122;BME280;64853;53.200;6.080;2023-05-27T19:52:19;102421.63;;;23.46;41.92
76122;BME280;64853;53.200;6.080;2023-05-27T19:57:11;102421.34;;;23.48;41.97
76122;BME280;64853;53.200;6.080;2023-05-27T20:02:05;102416.91;;;23.47;41.75
76122;BME280;64853;53.200;6.080;2023-05-27T20:06:57;102424.13;;;23.48;41.80
76122;BME280;64853;53.200;6.080;2023-05-27T20:11:53;102432.47;;;23.48;41.82
76122;BME280;64853;53.200;6.080;2023-05-27T20:16:46;102429.69;;;23.48;41.75
76122;BME280;64853;53.200;6.080;2023-05-27T20:21:38;102419.41;;;23.48;41.61
76122;BME280;64853;53.200;6.080;2023-05-27T20:26:30;102412.25;;;23.37;41.87
76122;BME280;64853;53.200;6.080;2023-05-27T20:31:23;102421.06;;;23.49;41.69
76122;BME280;64853;53.200;6.080;2023-05-27T20:36:15;102415.53;;;23.44;41.56
76122;BME280;64853;53.200;6.080;2023-05-27T20:41:07;102420.25;;;23.49;41.84
76122;BME280;64853;53.200;6.080;2023-05-27T20:45:59;102411.94;;;23.43;40.89
76122;BME280;64853;53.200;6.080;2023-05-27T20:50:52;102408.63;;;23.36;41.09
76122;BME280;64853;53.200;6.080;2023-05-27T20:55:44;102412.53;;;23.30;41.08
76122;BME280;64853;53.200;6.080;2023-05-27T21:00:36;102412.84;;;23.23;41.42
76122;BME280;64853;53.200;6.080;2023-05-27T21:05:28;102399.56;;;23.15;41.60
76122;BME280;64853;53.200;6.080;2023-05-27T21:10:21;102387.88;;;23.08;41.62
76122;BME280;64853;53.200;6.080;2023-05-27T21:15:13;102377.06;;;23.01;41.65
76122;BME280;64853;53.200;6.080;2023-05-27T21:20:05;102394.84;;;23.05;41.73
76122;BME280;64853;53.200;6.080;2023-05-27T21:24:57;102392.91;;;23.01;41.61
76122;BME280;64853;53.200;6.080;2023-05-27T21:29:51;102391.00;;;22.96;41.76
76122;BME280;64853;53.200;6.080;2023-05-27T21:34:44;102393.22;;;22.89;41.86
76122;BME280;64853;53.200;6.080;2023-05-27T21:39:36;102382.19;;;22.74;41.22
76122;BME280;64853;53.200;6.080;2023-05-27T21:44:27;102397.72;;;22.75;41.46
76122;BME280;64853;53.200;6.080;2023-05-27T21:49:21;102398.06;;;22.63;40.95
76122;BME280;64853;53.200;6.080;2023-05-27T21:54:15;102391.09;;;22.60;40.89
76122;BME280;64853;53.200;6.080;2023-05-27T21:59:07;102385.00;;;22.48;40.80
76122;BME280;64853;53.200;6.080;2023-05-27T22:03:59;102394.47;;;22.52;40.92
76122;BME280;64853;53.200;6.080;2023-05-27T22:08:52;102383.34;;;22.36;40.71
76122;BME280;64853;53.200;6.080;2023-05-27T22:13:43;102397.25;;;22.42;40.62
76122;BME280;64853;53.200;6.080;2023-05-27T22:18:36;102395.31;;;22.37;40.86
76122;BME280;64853;53.200;6.080;2023-05-27T22:23:29;102372.53;;;22.25;40.62
76122;BME280;64853;53.200;6.080;2023-05-27T22:28:21;102375.56;;;22.28;40.97
76122;BME280;64853;53.200;6.080;2023-05-27T22:33:13;102374.50;;;22.24;40.71
76122;BME280;64853;53.200;6.080;2023-05-27T22:38:05;102351.16;;;22.10;40.81
76122;BME280;64853;53.200;6.080;2023-05-27T22:42:57;102370.34;;;22.16;40.66
76122;BME280;64853;53.200;6.080;2023-05-27T22:47:50;102365.63;;;22.12;40.73
76122;BME280;64853;53.200;6.080;2023-05-27T22:52:42;102363.41;;;22.04;40.80
76122;BME280;64853;53.200;6.080;2023-05-27T22:57:33;102357.00;;;22.03;41.06
76122;BME280;64853;53.200;6.080;2023-05-27T23:02:26;102329.28;;;21.88;40.78
76122;BME280;64853;53.200;6.080;2023-05-27T23:07:19;102341.75;;;21.95;41.03
76122;BME280;64853;53.200;6.080;2023-05-27T23:12:11;102339.50;;;21.92;41.33
76122;BME280;64853;53.200;6.080;2023-05-27T23:17:03;102307.91;;;21.78;41.04
76122;BME280;64853;53.200;6.080;2023-05-27T23:21:54;102311.78;;;21.82;40.93
76122;BME280;64853;53.200;6.080;2023-05-27T23:26:48;102308.47;;;21.80;41.34
76122;BME280;64853;53.200;6.080;2023-05-27T23:31:41;102317.31;;;21.77;41.33
76122;BME280;64853;53.200;6.080;2023-05-27T23:36:33;102317.88;;;21.74;41.54
76122;BME280;64853;53.200;6.080;2023-05-27T23:41:25;102322.84;;;21.72;41.55
76122;BME280;64853;53.200;6.080;2023-05-27T23:46:19;102312.88;;;21.66;41.67
76122;BME280;64853;53.200;6.080;2023-05-27T23:51:10;102307.88;;;21.62;41.70
76122;BME280;64853;53.200;6.080;2023-05-27T23:56:03;102316.22;;;21.62;41.76
